Time;durP1;ratioP1;P1;durP2;ratioP2;P2;SDS_P1;SDS_P2;PMS_P1;PMS_P2;Temp;Humidity;BMP_temperature;BMP_pressure;BME280_temperature;BME280_humidity;BME280_pressure;Samples;Min_cycle;Max_cycle;Signal;HPM_P1;HPM_P2
2024/01/20 00:00:35;;;;;;;;;26.75;22.00;;;;;3.00;63.38;102649.59;5116920;27;45519;-52
2024/01/20 00:03:00;;;;;;;;;30.25;23.75;;;;;2.96;63.79;102634.66;5101802;27;45581;-51
2024/01/20 00:05:26;;;;;;;;;17.00;14.00;;;;;2.94;63.66;102633.75;5115845;27;45443;-52
2024/01/20 00:07:51;;;;;;;;;26.75;21.50;;;;;2.92;63.49;102631.13;5119900;27;45681;-53
2024/01/20 00:10:17;;;;;;;;;17.75;15.50;;;;;2.88;63.61;102639.84;5101752;27;45736;-52
2024/01/20 00:12:43;;;;;;;;;23.50;18.50;;;;;2.85;63.37;102646.78;5116120;27;45356;-52
2024/01/20 00:15:09;;;;;;;;;21.75;15.50;;;;;2.80;63.41;102650.25;5145522;27;45871;-52
2024/01/20 00:17:36;;;;;;;;;17.25;14.00;;;;;2.77;63.47;102650.19;5147167;27;45532;-51
2024/01/20 00:20:02;;;;;;;;;19.25;15.50;;;;;2.75;63.63;102654.56;5127937;27;45526;-51
2024/01/20 00:22:27;;;;;;;;;22.00;18.75;;;;;2.73;63.88;102648.41;5114395;27;45605;-52
2024/01/20 00:24:52;;;;;;;;;16.00;16.00;;;;;2.73;63.80;102651.03;5116150;27;45900;-51
2024/01/20 00:27:18;;;;;;;;;15.50;14.00;;;;;2.72;63.85;102654.53;5120232;27;45522;-52
2024/01/20 00:29:43;;;;;;;;;18.50;15.25;;;;;2.72;63.85;102646.63;5109400;27;68288;-53
2024/01/20 00:32:08;;;;;;;;;23.00;19.25;;;;;2.71;63.71;102646.63;5111632;27;45506;-53
2024/01/20 00:34:34;;;;;;;;;17.25;14.25;;;;;2.67;63.74;102640.44;5109411;27;71962;-54
2024/01/20 00:37:00;;;;;;;;;21.75;18.50;;;;;2.63;63.76;102650.06;5116852;27;45559;-49
2024/01/20 00:39:25;;;;;;;;;29.25;18.50;;;;;2.62;63.98;102650.00;5120038;27;45489;-48
2024/01/20 00:41:51;;;;;;;;;21.50;21.00;;;;;2.61;63.96;102648.28;5118471;27;45387;-50
2024/01/20 00:44:16;;;;;;;;;20.50;18.75;;;;;2.61;63.85;102646.50;5117358;27;75442;-50
2024/01/20 00:46:41;;;;;;;;;25.75;19.75;;;;;2.63;63.87;102643.91;5112337;27;56145;-50
2024/01/20 00:49:07;;;;;;;;;26.00;16.25;;;;;2.62;64.08;102645.66;5123713;27;45534;-52
2024/01/20 00:51:32;;;;;;;;;27.00;19.50;;;;;2.62;63.93;102642.13;5117695;27;62313;-51
2024/01/20 00:53:57;;;;;;;;;19.75;18.50;;;;;2.62;64.09;102653.53;5119286;27;74359;-50
2024/01/20 00:56:23;;;;;;;;;23.25;19.25;;;;;2.64;64.05;102659.69;5104860;27;65880;-50
2024/01/20 00:58:48;;;;;;;;;27.75;22.00;;;;;2.66;63.84;102664.97;5115110;27;62269;-52
2024/01/20 01:01:13;;;;;;;;;18.75;14.75;;;;;2.67;64.12;102666.72;5112891;27;68903;-50
2024/01/20 01:03:38;;;;;;;;;24.00;20.00;;;;;2.69;64.17;102667.63;5111685;27;46322;-50
2024/01/20 01:06:04;;;;;;;;;22.50;18.25;;;;;2.71;64.17;102670.28;5107335;27;45479;-53
2024/01/20 01:08:29;;;;;;;;;19.50;18.50;;;;;2.73;64.10;102665.94;5120072;27;68238;-49
2024/01/20 01:10:55;;;;;;;;;25.75;23.50;;;;;2.75;63.93;102669.44;5107055;27;45681;-53
2024/01/20 01:13:21;;;;;;;;;20.25;19.75;;;;;2.76;63.98;102658.94;5119301;27;46872;-54
2024/01/20 01:15:46;;;;;;;;;23.50;19.25;;;;;2.80;64.02;102670.38;5118324;27;45813;-52
2024/01/20 01:18:11;;;;;;;;;16.75;14.50;;;;;2.76;63.81;102666.81;5110609;27;45793;-51
2024/01/20 01:20:37;;;;;;;;;28.00;20.00;;;;;2.76;63.88;102666.81;5118217;27;45487;-51
2024/01/20 01:23:02;;;;;;;;;22.75;19.75;;;;;2.72;63.79;102662.41;5118135;27;74477;-52
2024/01/20 01:25:28;;;;;;;;;23.75;20.50;;;;;2.71;63.64;102667.66;5118300;27;46490;-51
2024/01/20 01:27:53;;;;;;;;;24.25;17.75;;;;;2.70;63.86;102660.63;5119784;27;45412;-51
2024/01/20 01:30:19;;;;;;;;;15.50;15.00;;;;;2.71;63.96;102668.56;5126908;27;45410;-52
2024/01/20 01:32:44;;;;;;;;;19.50;19.00;;;;;2.71;63.98;102659.75;5116079;27;45473;-52
2024/01/20 01:35:09;;;;;;;;;22.50;16.25;;;;;2.69;63.66;102664.13;5120001;27;72595;-54
2024/01/20 01:37:35;;;;;;;;;15.75;15.00;;;;;2.63;63.73;102671.06;5116613;27;71514;-50
2024/01/20 01:40:00;;;;;;;;;19.75;17.25;;;;;2.64;64.10;102664.06;5128501;27;69411;-53
2024/01/20 01:42:25;;;;;;;;;13.25;12.50;;;;;2.63;63.46;102667.53;5118036;27;71895;-52
2024/01/20 01:44:52;;;;;;;;;16.75;16.75;;;;;2.64;63.73;102670.19;5117864;27;72185;-52
2024/01/20 01:47:17;;;;;;;;;17.00;15.75;;;;;2.65;63.55;102678.97;5118417;27;45408;-53
2024/01/20 01:49:43;;;;;;;;;15.00;14.25;;;;;2.66;63.64;102675.50;5125549;27;45185;-53
2024/01/20 01:52:08;;;;;;;;;20.50;19.50;;;;;2.61;63.27;102683.31;5118091;27;72163;-52
2024/01/20 01:54:33;;;;;;;;;25.00;18.25;;;;;2.50;63.56;102687.50;5118056;27;45309;-52
2024/01/20 01:56:59;;;;;;;;;13.75;13.00;;;;;2.40;63.78;102681.28;5117183;27;67457;-48
2024/01/20 01:59:28;;;;;;;;;20.00;15.75;;;;;2.39;63.86;102687.38;5103767;27;45603;-50
2024/01/20 02:01:53;;;;;;;;;26.50;16.50;;;;;2.41;64.34;102690.03;5118667;27;46283;-53
2024/01/20 02:04:18;;;;;;;;;18.25;14.25;;;;;2.42;64.16;102683.91;5117483;27;71801;-52
2024/01/20 02:06:44;;;;;;;;;15.50;13.75;;;;;2.42;63.85;102689.16;5117540;27;56629;-53
2024/01/20 02:09:10;;;;;;;;;19.00;17.00;;;;;2.44;63.86;102695.34;5116333;27;45566;-53
2024/01/20 02:11:35;;;;;;;;;21.00;18.25;;;;;2.38;63.87;102698.75;5151706;27;46444;-52
2024/01/20 02:14:01;;;;;;;;;18.00;15.25;;;;;2.26;64.00;102696.81;5118012;27;45409;-52
2024/01/20 02:16:26;;;;;;;;;26.75;18.75;;;;;2.24;64.34;102697.66;5118083;27;58228;-51
2024/01/20 02:18:51;;;;;;;;;19.75;18.25;;;;;2.25;64.30;102696.81;5114011;27;55785;-53
2024/01/20 02:21:17;;;;;;;;;17.00;13.25;;;;;2.25;64.22;102700.28;5117500;27;73967;-53
2024/01/20 02:23:43;;;;;;;;;21.75;18.50;;;;;2.28;63.94;102696.84;5117426;27;73019;-50
2024/01/20 02:26:08;;;;;;;;;12.50;11.25;;;;;2.28;63.96;102697.75;5111973;27;69424;-51
2024/01/20 02:28:33;;;;;;;;;21.75;18.00;;;;;2.30;64.12;102697.75;5114144;27;45601;-52
2024/01/20 02:30:59;;;;;;;;;20.00;16.75;;;;;2.29;64.35;102694.25;5119011;27;45409;-51
2024/01/20 02:33:24;;;;;;;;;22.50;15.00;;;;;2.33;64.17;102692.53;5116234;27;72182;-52
2024/01/20 02:35:50;;;;;;;;;16.00;14.50;;;;;2.34;63.76;102696.94;5122106;27;48691;-52
2024/01/20 02:38:15;;;;;;;;;20.75;14.50;;;;;2.32;63.67;102698.63;5119451;27;50652;-54
2024/01/20 02:40:40;;;;;;;;;14.25;14.25;;;;;2.23;63.67;102696.78;5121721;27;74532;-50
2024/01/20 02:43:05;;;;;;;;;16.00;11.50;;;;;2.22;64.02;102696.78;5120461;27;71191;-50
2024/01/20 02:45:31;;;;;;;;;21.75;19.50;;;;;2.22;64.12;102699.41;5120923;27;45384;-52
2024/01/20 02:47:57;;;;;;;;;16.75;14.75;;;;;2.19;64.18;102701.94;5122381;27;45603;-52
2024/01/20 02:50:23;;;;;;;;;18.00;12.25;;;;;2.18;64.58;102698.47;5123201;27;46322;-52
2024/01/20 02:52:48;;;;;;;;;16.50;14.00;;;;;2.18;64.12;102698.47;5120848;27;45719;-51
2024/01/20 02:55:13;;;;;;;;;17.25;14.50;;;;;2.17;64.05;102694.06;5118736;27;52550;-52
2024/01/20 02:57:39;;;;;;;;;13.25;13.00;;;;;2.14;63.88;102699.28;5121274;27;65191;-50
2024/01/20 03:00:07;;;;;;;;;18.50;13.75;;;;;2.11;63.65;102704.47;5118980;27;72484;-51
2024/01/20 03:02:32;;;;;;;;;19.25;15.25;;;;;2.10;63.85;102706.22;5122351;27;45576;-51
2024/01/20 03:04:59;;;;;;;;;16.50;14.25;;;;;2.10;64.21;102705.31;5116894;27;65787;-48
2024/01/20 03:07:25;;;;;;;;;12.50;11.00;;;;;2.11;64.13;102701.84;5136980;27;45370;-51
2024/01/20 03:09:50;;;;;;;;;18.75;15.00;;;;;2.11;64.03;102699.22;5120259;27;74551;-49
2024/01/20 03:12:15;;;;;;;;;16.25;12.50;;;;;2.13;64.45;102706.25;5118797;27;72090;-51
2024/01/20 03:14:41;;;;;;;;;22.50;19.00;;;;;2.15;64.26;102709.78;5126365;27;57047;-52
2024/01/20 03:17:06;;;;;;;;;14.75;13.75;;;;;2.13;63.63;102708.88;5120828;27;67830;-52
2024/01/20 03:19:31;;;;;;;;;11.50;11.50;;;;;2.02;64.10;102699.97;5102462;27;45791;-52
2024/01/20 03:21:57;;;;;;;;;23.25;17.75;;;;;1.97;64.35;102702.50;5112780;27;64051;-52
2024/01/20 03:24:22;;;;;;;;;17.25;13.75;;;;;1.97;64.22;102705.13;5119039;27;59173;-50
2024/01/20 03:26:49;;;;;;;;;15.50;10.75;;;;;2.00;64.14;102704.28;5121447;27;45720;-51
2024/01/20 03:29:14;;;;;;;;;16.75;16.25;;;;;2.03;64.36;102706.09;5120191;27;45426;-52
2024/01/20 03:31:40;;;;;;;;;14.00;13.75;;;;;2.04;63.75;102711.34;5121363;27;45391;-51
2024/01/20 03:34:05;;;;;;;;;22.75;16.25;;;;;2.03;64.02;102712.22;5117303;27;45362;-49
2024/01/20 03:36:30;;;;;;;;;19.00;14.75;;;;;1.96;63.65;102705.97;5115057;27;51703;-49
2024/01/20 03:38:56;;;;;;;;;22.00;16.50;;;;;1.83;63.99;102705.78;5119952;27;73602;-50
2024/01/20 03:41:21;;;;;;;;;28.50;18.00;;;;;1.72;64.21;102705.56;5119831;27;45330;-50
2024/01/20 03:43:46;;;;;;;;;18.00;15.75;;;;;1.73;64.59;102702.09;5119904;27;69112;-52
2024/01/20 03:46:12;;;;;;;;;21.50;14.25;;;;;1.78;64.29;102713.56;5120240;27;45463;-49
2024/01/20 03:48:37;;;;;;;;;17.50;16.50;;;;;1.84;63.96;102705.78;5120581;27;45392;-53
2024/01/20 03:51:03;;;;;;;;;18.50;15.75;;;;;1.85;64.23;102701.41;5119537;27;45798;-52
2024/01/20 03:53:28;;;;;;;;;27.00;20.25;;;;;1.84;63.58;102703.16;5119971;27;45379;-50
2024/01/20 03:55:53;;;;;;;;;18.00;14.75;;;;;1.77;64.02;102704.81;5119532;27;68771;-52
2024/01/20 03:58:19;;;;;;;;;22.25;19.25;;;;;1.75;64.40;102703.88;5118296;27;75591;-50
2024/01/20 04:00:44;;;;;;;;;19.50;13.50;;;;;1.72;64.50;102698.59;5123032;27;45411;-52
2024/01/20 04:03:09;;;;;;;;;12.25;11.50;;;;;1.70;64.62;102699.44;5113930;27;69399;-50
2024/01/20 04:05:35;;;;;;;;;26.75;21.75;;;;;1.72;64.44;102706.47;5120608;27;69425;-51
2024/01/20 04:08:00;;;;;;;;;17.25;12.75;;;;;1.76;64.69;102702.13;5117844;27;71552;-52
2024/01/20 04:10:25;;;;;;;;;25.00;18.50;;;;;1.80;64.85;102699.59;5119921;27;49443;-50
2024/01/20 04:12:51;;;;;;;;;16.50;11.50;;;;;1.87;64.67;102703.22;5118676;27;45770;-50
2024/01/20 04:15:16;;;;;;;;;27.50;17.00;;;;;1.90;64.27;102710.25;5120512;27;45244;-51
2024/01/20 04:17:41;;;;;;;;;23.50;19.00;;;;;1.92;64.10;102714.66;5118823;27;45434;-50
2024/01/20 04:20:08;;;;;;;;;17.00;13.00;;;;;1.93;64.26;102713.81;5119537;27;61002;-50
2024/01/20 04:22:33;;;;;;;;;16.50;12.50;;;;;1.95;64.15;102721.72;5116805;27;45428;-53
2024/01/20 04:24:58;;;;;;;;;18.75;14.25;;;;;1.92;64.10;102719.91;5117824;27;70320;-52
2024/01/20 04:27:23;;;;;;;;;19.50;12.00;;;;;1.78;63.55;102724.06;5114801;27;69563;-52
2024/01/20 04:29:49;;;;;;;;;16.00;10.75;;;;;1.63;64.40;102714.16;5117855;27;71133;-52
2024/01/20 04:32:14;;;;;;;;;19.25;14.25;;;;;1.56;64.23;102717.53;5112533;27;62437;-53
2024/01/20 04:34:39;;;;;;;;;17.00;12.00;;;;;1.56;64.54;102722.78;5105458;27;69742;-52
2024/01/20 04:37:05;;;;;;;;;13.00;12.00;;;;;1.55;64.48;102726.25;5106809;27;72117;-52
2024/01/20 04:39:30;;;;;;;;;18.25;14.50;;;;;1.58;64.89;102721.09;5122768;27;45649;-52
2024/01/20 04:41:55;;;;;;;;;16.50;13.25;;;;;1.58;64.66;102718.47;5116761;27;69245;-52
2024/01/20 04:44:22;;;;;;;;;17.00;11.00;;;;;1.57;64.77;102725.44;5118371;27;69694;-52
2024/01/20 04:46:47;;;;;;;;;15.75;13.75;;;;;1.58;63.97;102721.09;5109212;27;45475;-53
2024/01/20 04:49:12;;;;;;;;;17.25;16.00;;;;;1.57;64.20;102729.81;5123032;27;64720;-53
2024/01/20 04:51:38;;;;;;;;;17.50;14.25;;;;;1.53;64.23;102728.00;5114076;27;66689;-52
2024/01/20 04:54:03;;;;;;;;;18.75;16.25;;;;;1.55;64.89;102721.91;5107374;27;65222;-52
2024/01/20 04:56:29;;;;;;;;;18.25;16.25;;;;;1.59;64.40;102726.34;5117395;27;45454;-53
2024/01/20 04:58:55;;;;;;;;;15.50;14.75;;;;;1.61;64.26;102731.63;5122139;27;69072;-53
2024/01/20 05:01:20;;;;;;;;;18.50;17.00;;;;;1.60;64.52;102736.00;5122592;27;45458;-52
2024/01/20 05:03:46;;;;;;;;;18.50;14.50;;;;;1.58;64.52;102740.31;5125511;27;45396;-55
2024/01/20 05:06:11;;;;;;;;;13.75;11.25;;;;;1.51;64.35;102735.81;5116788;27;46238;-52
2024/01/20 05:08:37;;;;;;;;;15.00;12.00;;;;;1.47;64.10;102739.22;5111939;27;45673;-52
2024/01/20 05:11:02;;;;;;;;;17.75;13.75;;;;;1.44;64.70;102745.31;5126113;27;45353;-51
2024/01/20 05:13:27;;;;;;;;;18.75;12.00;;;;;1.40;64.40;102740.00;5117369;27;46021;-53
2024/01/20 05:15:56;;;;;;;;;18.00;13.00;;;;;1.37;64.78;102740.81;5110917;27;46064;-49
2024/01/20 05:18:21;;;;;;;;;16.50;12.75;;;;;1.34;64.81;102734.63;5118018;27;45418;-50
2024/01/20 05:20:46;;;;;;;;;16.50;12.50;;;;;1.30;65.08;102736.28;5120356;27;45366;-51
2024/01/20 05:23:12;;;;;;;;;27.75;16.50;;;;;1.24;64.32;102734.44;5117601;27;69869;-49
2024/01/20 05:25:37;;;;;;;;;16.25;12.25;;;;;1.18;64.73;102742.19;5127927;27;61257;-50
2024/01/20 05:28:03;;;;;;;;;14.75;12.00;;;;;1.15;65.12;102732.50;5112392;27;45322;-51
2024/01/20 05:30:28;;;;;;;;;16.75;12.75;;;;;1.13;64.75;102742.09;5116772;27;45700;-48
2024/01/20 05:32:54;;;;;;;;;17.50;13.75;;;;;1.09;65.30;102742.88;5118792;27;55061;-51
2024/01/20 05:35:19;;;;;;;;;15.50;11.50;;;;;1.05;65.58;102735.78;5117524;27;46141;-50
2024/01/20 05:37:44;;;;;;;;;18.00;15.25;;;;;1.04;64.97;102733.16;5110205;27;54529;-51
2024/01/20 05:40:10;;;;;;;;;17.25;13.50;;;;;1.02;65.48;102725.25;5114601;27;66685;-52
2024/01/20 05:42:35;;;;;;;;;12.00;11.00;;;;;0.98;65.18;102726.06;5118074;27;45287;-53
2024/01/20 05:45:01;;;;;;;;;18.50;13.25;;;;;0.91;64.87;102722.44;5119157;27;63856;-51
2024/01/20 05:47:26;;;;;;;;;13.00;12.75;;;;;0.84;65.43;102738.00;5143125;27;45575;-52
2024/01/20 05:49:52;;;;;;;;;14.25;12.25;;;;;0.79;65.72;102749.22;5119669;27;45397;-53
2024/01/20 05:52:17;;;;;;;;;17.25;16.00;;;;;0.70;65.59;102746.41;5113242;27;63525;-51
2024/01/20 05:54:42;;;;;;;;;22.00;11.75;;;;;0.68;65.84;102744.59;5119651;27;72535;-53
2024/01/20 05:57:08;;;;;;;;;16.50;12.25;;;;;0.64;65.18;102752.41;5114348;27;72727;-51
2024/01/20 05:59:33;;;;;;;;;23.00;16.50;;;;;0.64;66.09;102762.03;5112872;27;45401;-51
2024/01/20 06:01:59;;;;;;;;;15.50;12.00;;;;;0.63;65.63;102763.72;5120444;27;45604;-52
2024/01/20 06:04:24;;;;;;;;;17.50;15.25;;;;;0.62;66.08;102754.09;5114361;27;46496;-52
2024/01/20 06:06:49;;;;;;;;;17.00;13.50;;;;;0.63;65.77;102753.25;5118609;27;61277;-52
2024/01/20 06:09:15;;;;;;;;;15.50;11.00;;;;;0.64;65.76;102748.91;5112988;27;45387;-50
2024/01/20 06:11:41;;;;;;;;;17.25;12.50;;;;;0.60;65.85;102741.81;5121112;27;45403;-49
2024/01/20 06:14:06;;;;;;;;;13.50;9.75;;;;;0.57;66.17;102742.63;5122671;27;46271;-53
2024/01/20 06:16:33;;;;;;;;;12.50;11.75;;;;;0.56;66.40;102751.38;5119621;27;45374;-50
2024/01/20 06:18:59;;;;;;;;;12.75;10.50;;;;;0.55;66.54;102751.31;5121158;27;45409;-53
2024/01/20 06:21:24;;;;;;;;;11.50;10.25;;;;;0.51;66.91;102750.38;5112933;27;45429;-52
2024/01/20 06:23:50;;;;;;;;;22.50;16.00;;;;;0.49;67.06;102744.19;5134644;27;45570;-48
2024/01/20 06:26:15;;;;;;;;;16.00;15.75;;;;;0.46;66.89;102754.63;5116605;27;45417;-49
2024/01/20 06:28:40;;;;;;;;;17.25;11.75;;;;;0.45;66.35;102752.84;5126817;27;45324;-52
2024/01/20 06:31:06;;;;;;;;;9.50;9.25;;;;;0.42;66.65;102758.88;5121392;27;63068;-49
2024/01/20 06:33:31;;;;;;;;;17.25;12.25;;;;;0.44;66.99;102751.06;5129869;27;69376;-53
2024/01/20 06:35:56;;;;;;;;;22.75;14.50;;;;;0.44;66.62;102756.31;5107437;27;45273;-50
2024/01/20 06:38:22;;;;;;;;;12.00;12.00;;;;;0.44;66.47;102756.31;5121976;27;70389;-53
2024/01/20 06:40:47;;;;;;;;;11.50;11.50;;;;;0.43;66.55;102759.75;5121232;27;70583;-49
2024/01/20 06:43:13;;;;;;;;;15.50;14.00;;;;;0.40;66.93;102760.56;5120936;27;46191;-49
2024/01/20 06:45:38;;;;;;;;;15.50;12.25;;;;;0.37;66.80;102763.13;5121637;27;45379;-52
2024/01/20 06:48:04;;;;;;;;;14.50;10.50;;;;;0.36;66.50;102763.09;5120586;27;65297;-52
2024/01/20 06:50:30;;;;;;;;;13.50;10.00;;;;;0.35;67.29;102767.44;5121766;27;45556;-53
2024/01/20 06:52:55;;;;;;;;;12.25;12.00;;;;;0.36;66.90;102784.91;5119491;27;52090;-52
2024/01/20 06:55:20;;;;;;;;;17.00;13.75;;;;;0.35;67.99;102785.75;5119335;27;72195;-50
2024/01/20 06:57:46;;;;;;;;;20.75;12.75;;;;;0.36;67.56;102784.91;5114997;27;67534;-54
2024/01/20 07:00:11;;;;;;;;;11.00;9.00;;;;;0.36;67.18;102798.00;5120724;27;63160;-52
2024/01/20 07:02:37;;;;;;;;;16.50;11.25;;;;;0.36;67.53;102791.91;5115387;27;45509;-51
2024/01/20 07:05:02;;;;;;;;;12.50;11.00;;;;;0.35;67.91;102798.84;5109306;27;45431;-51
2024/01/20 07:07:27;;;;;;;;;17.00;14.50;;;;;0.35;67.72;102800.59;5120071;27;45346;-51
2024/01/20 07:09:53;;;;;;;;;18.00;11.00;;;;;0.33;67.57;102801.44;5121970;27;45441;-49
2024/01/20 07:12:21;;;;;;;;;11.75;7.75;;;;;0.32;67.55;102794.44;5117085;27;45530;-52
2024/01/20 07:14:46;;;;;;;;;15.50;12.00;;;;;0.30;67.44;102800.47;5107595;27;45282;-52
2024/01/20 07:17:11;;;;;;;;;16.00;13.50;;;;;0.30;67.58;102795.25;5125920;27;45387;-52
2024/01/20 07:19:37;;;;;;;;;17.50;13.50;;;;;0.29;67.85;102807.47;5120769;27;69866;-52
2024/01/20 07:22:03;;;;;;;;;12.00;11.00;;;;;0.28;66.95;102802.19;5121208;27;46863;-49
2024/01/20 07:24:29;;;;;;;;;19.50;10.00;;;;;0.24;67.57;102801.22;5127362;27;45538;-52
2024/01/20 07:26:54;;;;;;;;;14.50;13.00;;;;;0.23;67.47;102799.44;5121630;27;45550;-52
2024/01/20 07:29:20;;;;;;;;;20.25;12.00;;;;;0.23;67.21;102811.66;5124629;27;45419;-53
2024/01/20 07:31:45;;;;;;;;;12.25;12.00;;;;;0.22;68.21;102799.41;5121206;27;56213;-52
2024/01/20 07:34:10;;;;;;;;;21.75;14.00;;;;;0.20;67.70;102804.63;5119771;27;45789;-53
2024/01/20 07:36:37;;;;;;;;;25.50;19.25;;;;;0.19;67.91;102799.34;5127560;27;63676;-53
2024/01/20 07:39:04;;;;;;;;;24.50;17.25;;;;;0.18;67.80;102800.19;5130782;27;45329;-52
2024/01/20 07:41:29;;;;;;;;;16.75;11.75;;;;;0.17;67.99;102799.31;5120645;27;46320;-53
2024/01/20 07:43:55;;;;;;;;;15.75;10.75;;;;;0.16;68.02;102800.16;5119622;27;45400;-50
2024/01/20 07:46:20;;;;;;;;;20.00;16.50;;;;;0.17;67.67;102804.56;5122295;27;62221;-51
2024/01/20 07:48:45;;;;;;;;;27.25;18.50;;;;;0.16;68.19;102801.03;5119427;27;67385;-52
2024/01/20 07:51:11;;;;;;;;;18.50;18.50;;;;;0.15;67.84;102801.88;5102298;27;48168;-53
2024/01/20 07:53:36;;;;;;;;;19.50;18.00;;;;;0.15;67.42;102801.00;5120702;27;45803;-54
2024/01/20 07:56:01;;;;;;;;;15.75;12.50;;;;;0.16;67.72;102808.00;5119657;27;59412;-52
2024/01/20 07:58:26;;;;;;;;;19.00;14.75;;;;;0.17;68.58;102815.03;5118866;27;69032;-50
2024/01/20 08:00:52;;;;;;;;;19.75;16.00;;;;;0.19;68.49;102817.66;5120159;27;69805;-51
2024/01/20 08:03:17;;;;;;;;;15.75;12.00;;;;;0.20;67.77;102816.84;5112404;27;70592;-52
2024/01/20 08:05:43;;;;;;;;;18.25;17.25;;;;;0.22;68.73;102817.72;5118776;27;46713;-48
2024/01/20 08:08:08;;;;;;;;;18.50;15.50;;;;;0.25;67.58;102825.66;5120869;27;45440;-49
2024/01/20 08:10:34;;;;;;;;;22.75;19.75;;;;;0.28;67.40;102824.00;5102791;27;45297;-51
2024/01/20 08:12:59;;;;;;;;;25.50;17.00;;;;;0.29;68.38;102827.53;5108479;27;59850;-49
2024/01/20 08:15:24;;;;;;;;;16.25;16.00;;;;;0.31;67.80;102823.19;5121292;27;45413;-49
2024/01/20 08:17:50;;;;;;;;;19.25;15.75;;;;;0.35;67.66;102821.53;5106944;27;45432;-51
2024/01/20 08:20:15;;;;;;;;;16.75;14.25;;;;;0.37;67.49;102819.88;5107336;27;46433;-52
2024/01/20 08:22:40;;;;;;;;;19.25;16.75;;;;;0.40;67.40;102826.03;5113486;27;71866;-51
2024/01/20 08:25:06;;;;;;;;;15.50;15.00;;;;;0.44;67.95;102825.28;5122485;27;61356;-50
2024/01/20 08:27:32;;;;;;;;;16.25;11.75;;;;;0.48;67.59;102831.47;5121956;27;45419;-51
2024/01/20 08:29:57;;;;;;;;;17.25;16.75;;;;;0.53;67.42;102829.84;5125544;27;46315;-49
2024/01/20 08:32:22;;;;;;;;;27.75;16.75;;;;;0.57;67.31;102831.69;5112340;27;45604;-50
2024/01/20 08:34:48;;;;;;;;;17.25;13.75;;;;;0.59;67.64;102830.00;5112528;27;69668;-51
2024/01/20 08:37:13;;;;;;;;;8.50;7.50;;;;;0.62;67.99;102827.44;5112017;27;63113;-52
2024/01/20 08:39:38;;;;;;;;;21.25;16.25;;;;;0.67;67.11;102821.44;5111991;27;65707;-48
2024/01/20 08:42:04;;;;;;;;;19.75;16.25;;;;;0.70;67.02;102830.25;5116462;27;62472;-49
2024/01/20 08:44:32;;;;;;;;;17.50;15.50;;;;;0.71;67.80;102826.78;5112690;27;45455;-49
2024/01/20 08:46:57;;;;;;;;;16.75;15.50;;;;;0.74;67.85;102823.34;5118454;27;45539;-49
2024/01/20 08:49:23;;;;;;;;;22.00;14.25;;;;;0.77;67.08;102831.25;5118569;27;45556;-51
2024/01/20 08:51:48;;;;;;;;;24.50;21.50;;;;;0.79;67.19;102829.59;5119033;27;45424;-49
2024/01/20 08:54:13;;;;;;;;;16.75;16.00;;;;;0.83;67.18;102828.78;5118675;27;60668;-52
2024/01/20 08:56:39;;;;;;;;;18.25;16.25;;;;;0.86;67.66;102830.59;5119365;27;45777;-52
2024/01/20 08:59:04;;;;;;;;;39.25;35.00;;;;;0.91;67.52;102834.22;5112072;27;45530;-53
2024/01/20 09:01:29;;;;;;;;;30.00;23.50;;;;;0.95;66.70;102833.44;5110942;27;71502;-50
2024/01/20 09:03:55;;;;;;;;;22.75;19.25;;;;;0.94;66.95;102832.56;5110893;27;64431;-52
2024/01/20 09:06:20;;;;;;;;;18.50;15.50;;;;;0.98;66.46;102842.25;5118134;27;46362;-49
2024/01/20 09:08:45;;;;;;;;;17.25;14.75;;;;;1.03;66.67;102836.22;5116480;27;75443;-50
2024/01/20 09:11:11;;;;;;;;;31.75;28.00;;;;;1.07;66.56;102827.56;5116515;27;61019;-52
2024/01/20 09:13:36;;;;;;;;;23.75;21.25;;;;;1.10;66.42;102830.28;5113270;27;57408;-51
2024/01/20 09:16:02;;;;;;;;;17.75;17.75;;;;;1.11;67.12;102822.44;5116801;27;45448;-49
2024/01/20 09:18:27;;;;;;;;;24.75;15.25;;;;;1.15;66.18;102820.78;5110465;27;47822;-52
2024/01/20 09:20:52;;;;;;;;;28.25;23.00;;;;;1.20;66.39;102824.38;5116878;27;58040;-52
2024/01/20 09:23:18;;;;;;;;;20.25;13.00;;;;;1.21;66.04;102805.16;5113106;27;69413;-49
2024/01/20 09:25:44;;;;;;;;;21.75;21.75;;;;;1.23;66.51;102803.47;5117152;27;69455;-50
2024/01/20 09:28:09;;;;;;;;;20.25;16.50;;;;;1.29;66.26;102805.31;5118880;27;47087;-54
2024/01/20 09:30:35;;;;;;;;;26.25;21.00;;;;;1.32;65.96;102801.03;5117885;27;66659;-52
2024/01/20 09:33:04;;;;;;;;;26.50;23.75;;;;;1.36;66.20;102798.47;5115622;27;45360;-54
2024/01/20 09:35:30;;;;;;;;;23.25;19.75;;;;;1.40;66.39;102810.81;5110534;27;45606;-54
2024/01/20 09:37:55;;;;;;;;;26.00;22.00;;;;;1.44;66.33;102808.25;5111435;27;46592;-54
2024/01/20 09:40:20;;;;;;;;;41.00;33.25;;;;;1.48;66.10;102812.69;5110356;27;70537;-53
2024/01/20 09:42:46;;;;;;;;;41.50;35.25;;;;;1.51;66.34;102805.75;5107187;27;69430;-54
2024/01/20 09:45:12;;;;;;;;;39.50;33.75;;;;;1.54;65.74;102803.19;5110062;27;45392;-54
2024/01/20 09:47:37;;;;;;;;;31.00;25.00;;;;;1.58;65.67;102803.28;5144989;27;47145;-54
2024/01/20 09:50:04;;;;;;;;;28.00;21.00;;;;;1.60;66.15;102800.69;5109029;27;71286;-55
2024/01/20 09:52:31;;;;;;;;;28.50;22.75;;;;;1.64;65.47;102808.66;5115459;27;45488;-54
2024/01/20 09:55:04;;;;;;;;;29.00;21.00;;;;;1.70;65.60;102801.75;5116966;27;45470;-54
2024/01/20 09:57:29;;;;;;;;;34.25;26.25;;;;;1.74;65.72;102799.22;5111502;27;45259;-52
2024/01/20 09:59:56;;;;;;;;;28.00;25.00;;;;;1.92;65.56;102803.03;5116051;27;72757;-53
2024/01/20 10:02:24;;;;;;;;;38.25;27.25;;;;;2.96;65.82;102801.16;5109439;27;69461;-52
2024/01/20 10:04:51;;;;;;;;;23.75;22.00;;;;;4.43;63.98;102794.81;5109205;27;45459;-51
2024/01/20 10:07:29;;;;;;;;;22.00;14.50;;;;;5.97;60.94;102789.28;5117408;27;45510;-54
2024/01/20 10:09:55;;;;;;;;;31.00;27.25;;;;;7.25;58.89;102788.22;5115387;27;45640;-54
2024/01/20 10:12:22;;;;;;;;;25.50;23.75;;;;;8.24;56.71;102781.41;5114761;27;45802;-52
2024/01/20 10:14:47;;;;;;;;;17.75;14.50;;;;;9.09;54.20;102781.44;5115062;27;45579;-48
2024/01/20 10:17:13;;;;;;;;;24.50;21.25;;;;;9.83;52.07;102776.00;5109641;27;73254;-53
2024/01/20 10:19:38;;;;;;;;;30.75;26.50;;;;;10.33;51.92;102765.44;5113597;27;54860;-53
2024/01/20 10:22:07;;;;;;;;;22.50;22.50;;;;;10.88;47.79;102766.19;5116489;27;45644;-52
2024/01/20 10:24:33;;;;;;;;;25.00;21.33;;;;;11.28;48.46;102768.03;5114568;27;45618;-51
2024/01/20 10:26:59;;;;;;;;;17.67;16.33;;;;;11.61;46.58;102773.50;5115726;27;45539;-54
2024/01/20 10:29:25;;;;;;;;;21.33;19.00;;;;;11.67;44.78;102769.84;5115143;27;45420;-55
2024/01/20 10:31:50;;;;;;;;;21.00;16.00;;;;;11.62;45.32;102771.75;5114774;27;45635;-55
2024/01/20 10:34:16;;;;;;;;;23.33;22.00;;;;;11.62;43.05;102782.41;5144489;27;45511;-57
2024/01/20 10:36:44;;;;;;;;;25.33;19.67;;;;;11.53;43.74;102776.34;5116180;27;74383;-55
2024/01/20 10:39:10;;;;;;;;;22.00;14.00;;;;;11.61;45.30;102773.50;5115147;27;45460;-54
2024/01/20 10:41:38;;;;;;;;;26.00;20.00;;;;;11.96;43.49;102763.84;5117514;27;45449;-55
2024/01/20 10:44:05;;;;;;;;;21.67;18.33;;;;;12.21;42.21;102761.41;5115455;27;45678;-54
2024/01/20 10:46:34;;;;;;;;;22.00;17.33;;;;;12.43;42.29;102771.53;5113343;27;48283;-55
2024/01/20 10:49:00;;;;;;;;;23.33;19.67;;;;;12.48;42.06;102761.63;5108205;27;45539;-55
2024/01/20 10:51:27;;;;;;;;;23.33;20.67;;;;;12.46;41.54;102765.25;5104735;27;45558;-57
2024/01/20 10:53:54;;;;;;;;;24.00;18.33;;;;;12.33;42.33;102762.91;5105128;27;45549;-57
2024/01/20 10:56:19;;;;;;;;;41.33;34.00;;;;;12.17;40.97;102770.41;5107249;27;46169;-56
2024/01/20 10:59:15;;;;;;;;;23.33;20.00;;;;;12.05;38.42;102768.94;5111076;27;58505;-57
2024/01/20 11:01:42;;;;;;;;;19.00;16.00;;;;;11.93;41.49;102766.56;5102093;27;45757;-54
2024/01/20 11:04:07;;;;;;;;;14.00;14.00;;;;;11.91;41.92;102760.38;5119514;27;45642;-56
2024/01/20 11:06:34;;;;;;;;;12.67;12.67;;;;;11.81;39.53;102761.50;5109321;27;47458;-56
2024/01/20 11:09:01;;;;;;;;;26.00;22.33;;;;;11.59;39.85;102759.38;5104266;27;45558;-54